Time;durP1;ratioP1;P1;durP2;ratioP2;P2;SDS_P1;SDS_P2;PMS_P1;PMS_P2;Temp;Humidity;BMP_temperature;BMP_pressure;BME280_temperature;BME280_humidity;BME280_pressure;Samples;Min_cycle;Max_cycle;Signal;HPM_P1;HPM_P2
2024/01/18 00:01:16;;;;;;;0.20;0.20;;;;;;;;;;5035489;28;20120;-79
2024/01/18 00:03:44;;;;;;;2.55;2.35;;;;;;;;;;5027372;28;20049;-79
2024/01/18 00:06:12;;;;;;;0.75;0.75;;;;;;;;;;5002191;28;20042;-79
2024/01/18 00:08:40;;;;;;;3.63;2.03;;;;;;;;;;5032779;28;20061;-80
2024/01/18 00:11:10;;;;;;;0.20;0.20;;;;;;;;;;5016683;28;20144;-79
2024/01/18 00:13:39;;;;;;;0.10;0.10;;;;;;;;;;5028259;28;20101;-79
2024/01/18 00:16:07;;;;;;;1.35;0.68;;;;;;;;;;5028660;28;20045;-79
2024/01/18 00:18:35;;;;;;;0.45;0.45;;;;;;;;;;5032674;28;20102;-79
2024/01/18 00:21:03;;;;;;;2.20;1.23;;;;;;;;;;5031437;28;20045;-79
2024/01/18 00:23:31;;;;;;;0.10;0.10;;;;;;;;;;5033246;28;20045;-79
2024/01/18 00:25:59;;;;;;;0.03;0.03;;;;;;;;;;5032168;28;20045;-79
2024/01/18 00:28:27;;;;;;;0.10;0.10;;;;;;;;;;5032486;28;20059;-79
2024/01/18 00:30:55;;;;;;;0.10;0.10;;;;;;;;;;5035750;28;20045;-79
2024/01/18 00:33:23;;;;;;;4.30;1.08;;;;;;;;;;5016437;28;20045;-79
2024/01/18 00:35:51;;;;;;;0.10;0.10;;;;;;;;;;5012648;28;20076;-79
2024/01/18 00:38:19;;;;;;;0.17;0.17;;;;;;;;;;5029117;28;20125;-79
2024/01/18 00:40:46;;;;;;;0.10;0.10;;;;;;;;;;5036394;28;20385;-79
2024/01/18 00:43:14;;;;;;;0.38;0.38;;;;;;;;;;5035575;28;20053;-79
2024/01/18 00:45:42;;;;;;;2.45;0.65;;;;;;;;;;5033338;28;20521;-79
2024/01/18 00:48:09;;;;;;;0.10;0.10;;;;;;;;;;5032882;28;20045;-79
2024/01/18 00:50:39;;;;;;;2.25;0.75;;;;;;;;;;5013854;28;20037;-79
2024/01/18 00:53:06;;;;;;;0.20;0.20;;;;;;;;;;5022232;28;20521;-79
2024/01/18 00:55:34;;;;;;;2.85;2.58;;;;;;;;;;5026451;28;20973;-79
2024/01/18 00:58:01;;;;;;;1.67;1.02;;;;;;;;;;5018045;28;20042;-79
2024/01/18 01:00:29;;;;;;;0.45;0.45;;;;;;;;;;5030378;28;20148;-79
2024/01/18 01:02:57;;;;;;;0.10;0.10;;;;;;;;;;5036509;28;20076;-79
2024/01/18 01:05:25;;;;;;;1.00;1.00;;;;;;;;;;5014473;28;20087;-79
2024/01/18 01:07:52;;;;;;;1.15;1.15;;;;;;;;;;5025942;28;20383;-79
2024/01/18 01:10:20;;;;;;;0.17;0.17;;;;;;;;;;5034562;28;20052;-78
2024/01/18 01:12:48;;;;;;;0.88;0.88;;;;;;;;;;5033429;28;20462;-79
2024/01/18 01:15:15;;;;;;;0.47;0.47;;;;;;;;;;5027092;28;20423;-79
2024/01/18 01:17:43;;;;;;;0.10;0.10;;;;;;;;;;5019071;28;20507;-79
2024/01/18 01:20:11;;;;;;;0.30;0.30;;;;;;;;;;5033280;28;20289;-78
2024/01/18 01:22:39;;;;;;;0.40;0.40;;;;;;;;;;5036159;28;20057;-78
2024/01/18 01:25:07;;;;;;;0.10;0.10;;;;;;;;;;5026479;28;20038;-79
2024/01/18 01:27:35;;;;;;;9.98;5.38;;;;;;;;;;5027404;28;20585;-78
2024/01/18 01:30:03;;;;;;;0.20;0.20;;;;;;;;;;5048462;23;20059;-76
2024/01/18 01:32:30;;;;;;;1.10;1.00;;;;;;;;;;5036732;28;20088;-76
2024/01/18 01:34:58;;;;;;;0.10;0.10;;;;;;;;;;5036709;28;20040;-75
2024/01/18 01:37:25;;;;;;;5.43;5.03;;;;;;;;;;5027182;28;20060;-76
2024/01/18 01:39:53;;;;;;;0.10;0.10;;;;;;;;;;5023136;28;20534;-79
2024/01/18 01:42:21;;;;;;;0.22;0.22;;;;;;;;;;5026298;28;20412;-79
2024/01/18 01:44:50;;;;;;;0.10;0.10;;;;;;;;;;5025890;28;20130;-78
2024/01/18 01:47:17;;;;;;;0.10;0.10;;;;;;;;;;5000480;28;20041;-79
2024/01/18 01:49:45;;;;;;;0.40;0.40;;;;;;;;;;5019480;28;20053;-78
2024/01/18 01:52:14;;;;;;;0.30;0.30;;;;;;;;;;5026965;28;20610;-79
2024/01/18 01:54:42;;;;;;;0.20;0.20;;;;;;;;;;5027209;28;20487;-79
2024/01/18 01:57:10;;;;;;;1.05;1.05;;;;;;;;;;5027598;28;20049;-78
2024/01/18 01:59:41;;;;;;;0.10;0.10;;;;;;;;;;5010805;28;20593;-79
2024/01/18 02:02:09;;;;;;;1.35;1.20;;;;;;;;;;5024090;28;20185;-79
2024/01/18 02:04:37;;;;;;;1.70;1.13;;;;;;;;;;5022170;28;20041;-76
2024/01/18 02:07:06;;;;;;;2.28;2.08;;;;;;;;;;5021837;28;20460;-76
2024/01/18 02:09:35;;;;;;;0.10;0.10;;;;;;;;;;4999387;28;20498;-77
2024/01/18 02:12:03;;;;;;;1.90;1.52;;;;;;;;;;5023532;28;20126;-77
2024/01/18 02:14:31;;;;;;;0.20;0.20;;;;;;;;;;5021739;28;20045;-77
2024/01/18 02:16:58;;;;;;;0.85;0.85;;;;;;;;;;5017933;28;20119;-76
2024/01/18 02:19:26;;;;;;;0.20;0.20;;;;;;;;;;5020487;28;20591;-77
2024/01/18 02:21:54;;;;;;;0.30;0.30;;;;;;;;;;5026420;28;20426;-77
2024/01/18 02:24:30;;;;;;;0.43;0.43;;;;;;;;;;5021524;28;20499;-77
2024/01/18 02:26:59;;;;;;;0.00;0.00;;;;;;;;;;5004821;28;20411;-77
2024/01/18 02:29:27;;;;;;;0.00;0.00;;;;;;;;;;5021496;28;20095;-77
2024/01/18 02:31:56;;;;;;;0.10;0.10;;;;;;;;;;5022153;28;20053;-77
2024/01/18 02:34:24;;;;;;;0.10;0.10;;;;;;;;;;5013836;28;20049;-77
2024/01/18 02:36:52;;;;;;;3.95;1.45;;;;;;;;;;5021042;28;20526;-77
2024/01/18 02:39:19;;;;;;;0.47;0.47;;;;;;;;;;5025779;28;20132;-77
2024/01/18 02:41:47;;;;;;;0.45;0.45;;;;;;;;;;5005335;28;20060;-77
2024/01/18 02:44:15;;;;;;;0.10;0.10;;;;;;;;;;5020826;28;20037;-77
2024/01/18 02:46:43;;;;;;;2.05;0.90;;;;;;;;;;5005162;28;20045;-77
2024/01/18 02:49:10;;;;;;;2.28;2.05;;;;;;;;;;5023441;28;20103;-77
2024/01/18 02:51:38;;;;;;;0.25;0.25;;;;;;;;;;5022664;28;20052;-77
2024/01/18 02:54:06;;;;;;;4.85;3.63;;;;;;;;;;5017405;28;20049;-77
2024/01/18 02:56:33;;;;;;;10.77;2.97;;;;;;;;;;5022759;28;20104;-77
2024/01/18 02:59:01;;;;;;;1.55;1.50;;;;;;;;;;5021144;28;20132;-77
2024/01/18 03:01:29;;;;;;;0.10;0.10;;;;;;;;;;5018488;28;20478;-77
2024/01/18 03:03:56;;;;;;;0.10;0.10;;;;;;;;;;5007539;28;20454;-77
2024/01/18 03:06:24;;;;;;;6.45;4.72;;;;;;;;;;5020442;28;20045;-77
2024/01/18 03:08:52;;;;;;;4.03;1.55;;;;;;;;;;5018849;28;20112;-77
2024/01/18 03:11:19;;;;;;;1.10;0.60;;;;;;;;;;5019476;28;20119;-77
2024/01/18 03:13:47;;;;;;;0.38;0.38;;;;;;;;;;5022641;28;20067;-77
2024/01/18 03:16:15;;;;;;;2.47;2.25;;;;;;;;;;5024911;28;20434;-77
2024/01/18 03:18:45;;;;;;;1.98;1.45;;;;;;;;;;5019904;28;20522;-78
2024/01/18 03:21:13;;;;;;;2.70;2.55;;;;;;;;;;5023852;28;20056;-79
2024/01/18 03:23:40;;;;;;;2.22;1.65;;;;;;;;;;5029024;28;20635;-78
2024/01/18 03:26:08;;;;;;;4.47;2.08;;;;;;;;;;5028563;28;20055;-78
2024/01/18 03:28:35;;;;;;;4.63;2.92;;;;;;;;;;5008408;28;20041;-78
2024/01/18 03:31:03;;;;;;;0.25;0.25;;;;;;;;;;5026055;28;20427;-78
2024/01/18 03:33:31;;;;;;;3.15;2.25;;;;;;;;;;5024743;28;20052;-78
2024/01/18 03:35:59;;;;;;;8.07;5.93;;;;;;;;;;5017957;28;20065;-78
2024/01/18 03:38:27;;;;;;;1.23;1.23;;;;;;;;;;5029065;28;20140;-78
2024/01/18 03:40:54;;;;;;;1.05;1.05;;;;;;;;;;5029629;28;20553;-78
2024/01/18 03:43:22;;;;;;;4.95;4.18;;;;;;;;;;5027168;28;20136;-79
2024/01/18 03:45:49;;;;;;;5.90;2.10;;;;;;;;;;5026809;28;20107;-78
2024/01/18 03:48:17;;;;;;;0.10;0.10;;;;;;;;;;5029394;28;20045;-78
2024/01/18 03:50:45;;;;;;;0.10;0.10;;;;;;;;;;5025664;28;20073;-78
2024/01/18 03:53:13;;;;;;;4.40;3.45;;;;;;;;;;5022615;28;20067;-79
2024/01/18 03:55:41;;;;;;;2.25;0.98;;;;;;;;;;5026673;28;20556;-78
2024/01/18 03:58:08;;;;;;;7.55;6.07;;;;;;;;;;5000420;28;20049;-78
2024/01/18 04:00:38;;;;;;;4.13;3.70;;;;;;;;;;5021725;28;20049;-78
2024/01/18 04:03:06;;;;;;;2.90;1.95;;;;;;;;;;5027513;28;20095;-78
2024/01/18 04:05:34;;;;;;;0.32;0.32;;;;;;;;;;5028643;28;20049;-78
2024/01/18 04:08:01;;;;;;;9.40;5.43;;;;;;;;;;5026568;28;20053;-78
2024/01/18 04:10:29;;;;;;;0.70;0.70;;;;;;;;;;5007532;28;20057;-78
2024/01/18 04:12:57;;;;;;;7.63;3.97;;;;;;;;;;5025945;28;20121;-77
2024/01/18 04:15:24;;;;;;;0.40;0.40;;;;;;;;;;5020351;28;20522;-77
2024/01/18 04:17:52;;;;;;;5.15;3.58;;;;;;;;;;5022105;28;20052;-78
2024/01/18 04:20:23;;;;;;;5.50;4.95;;;;;;;;;;5024444;28;20049;-78
2024/01/18 04:22:50;;;;;;;3.28;1.48;;;;;;;;;;5009712;28;20049;-78
2024/01/18 04:25:18;;;;;;;8.30;3.33;;;;;;;;;;5009124;28;20136;-78
2024/01/18 04:27:46;;;;;;;7.78;4.85;;;;;;;;;;5022501;28;20160;-77
2024/01/18 04:30:14;;;;;;;0.10;0.10;;;;;;;;;;5025433;28;20513;-77
2024/01/18 04:32:42;;;;;;;1.38;0.82;;;;;;;;;;5025555;28;20139;-77
2024/01/18 04:35:10;;;;;;;1.13;0.80;;;;;;;;;;5021928;28;20069;-77
2024/01/18 04:37:38;;;;;;;5.57;4.22;;;;;;;;;;5023512;28;20057;-77
2024/01/18 04:40:07;;;;;;;1.65;1.48;;;;;;;;;;5018433;28;20487;-77
2024/01/18 04:42:34;;;;;;;1.45;1.35;;;;;;;;;;5024754;28;20048;-78
2024/01/18 04:45:02;;;;;;;2.30;2.15;;;;;;;;;;5027121;28;20056;-78
2024/01/18 04:47:30;;;;;;;3.83;2.85;;;;;;;;;;5009426;28;20692;-78
2024/01/18 04:49:58;;;;;;;0.20;0.20;;;;;;;;;;5025813;28;20072;-78
2024/01/18 04:52:26;;;;;;;0.82;0.60;;;;;;;;;;5022412;28;20408;-78
2024/01/18 04:54:56;;;;;;;2.80;2.60;;;;;;;;;;5019493;28;20077;-78
2024/01/18 04:57:23;;;;;;;4.03;2.03;;;;;;;;;;5025750;28;20467;-78
2024/01/18 04:59:51;;;;;;;2.13;1.05;;;;;;;;;;5026879;28;20045;-78
2024/01/18 05:02:19;;;;;;;1.88;1.77;;;;;;;;;;5003107;28;20045;-76
2024/01/18 05:04:47;;;;;;;1.63;1.52;;;;;;;;;;5010598;28;20060;-78
2024/01/18 05:07:15;;;;;;;0.77;0.77;;;;;;;;;;5027735;28;20049;-78
2024/01/18 05:09:43;;;;;;;0.30;0.30;;;;;;;;;;5020325;28;20092;-77
2024/01/18 05:12:11;;;;;;;9.43;4.45;;;;;;;;;;5007153;28;20049;-78
2024/01/18 05:14:40;;;;;;;10.13;7.57;;;;;;;;;;4997718;28;20064;-78
2024/01/18 05:17:10;;;;;;;3.63;2.90;;;;;;;;;;5019513;28;20041;-78
2024/01/18 05:19:39;;;;;;;0.60;0.60;;;;;;;;;;5028151;28;20513;-78
2024/01/18 05:22:07;;;;;;;10.55;6.60;;;;;;;;;;5024572;28;20136;-78
2024/01/18 05:24:35;;;;;;;5.18;4.68;;;;;;;;;;5022489;28;20099;-78
2024/01/18 05:27:03;;;;;;;3.33;2.13;;;;;;;;;;5026065;28;20511;-78
2024/01/18 05:29:31;;;;;;;10.40;7.30;;;;;;;;;;5022894;28;20045;-78
2024/01/18 05:31:58;;;;;;;4.93;3.90;;;;;;;;;;5024150;28;20046;-78
2024/01/18 05:34:26;;;;;;;9.85;6.40;;;;;;;;;;5007559;28;20434;-78
2024/01/18 05:36:54;;;;;;;10.48;6.45;;;;;;;;;;5023350;28;20060;-78
2024/01/18 05:39:22;;;;;;;2.97;2.30;;;;;;;;;;5025342;28;20057;-78
2024/01/18 05:41:49;;;;;;;9.38;5.07;;;;;;;;;;5024321;28;20045;-78
2024/01/18 05:44:17;;;;;;;14.27;7.57;;;;;;;;;;5017486;28;20057;-78
2024/01/18 05:46:45;;;;;;;8.05;4.32;;;;;;;;;;5011803;28;20593;-78
2024/01/18 05:49:13;;;;;;;3.38;2.65;;;;;;;;;;5023095;28;20340;-78
2024/01/18 05:51:41;;;;;;;7.18;6.15;;;;;;;;;;5027729;28;20095;-78
2024/01/18 05:54:10;;;;;;;19.25;10.90;;;;;;;;;;5027188;28;20092;-78
2024/01/18 05:56:38;;;;;;;2.53;2.33;;;;;;;;;;5004258;28;20185;-78
2024/01/18 05:59:06;;;;;;;2.67;1.10;;;;;;;;;;5024868;28;20411;-78
2024/01/18 06:01:34;;;;;;;9.32;6.03;;;;;;;;;;5010552;28;20534;-78
2024/01/18 06:04:02;;;;;;;15.68;9.30;;;;;;;;;;5020831;28;20142;-78
2024/01/18 06:06:33;;;;;;;1.58;1.35;;;;;;;;;;5016600;28;20041;-79
2024/01/18 06:09:01;;;;;;;3.92;3.20;;;;;;;;;;5004709;28;20045;-79
2024/01/18 06:11:29;;;;;;;1.67;1.58;;;;;;;;;;5002744;28;20410;-79
2024/01/18 06:13:57;;;;;;;1.55;0.95;;;;;;;;;;5023495;28;20041;-79
2024/01/18 06:16:25;;;;;;;3.72;1.75;;;;;;;;;;5024220;28;20081;-79
2024/01/18 06:18:53;;;;;;;10.85;6.22;;;;;;;;;;5021525;28;20045;-79
2024/01/18 06:21:21;;;;;;;6.95;4.93;;;;;;;;;;5024941;28;20132;-78
2024/01/18 06:23:49;;;;;;;18.92;11.02;;;;;;;;;;5003296;28;20053;-79
2024/01/18 06:26:16;;;;;;;3.28;2.90;;;;;;;;;;5022535;28;20165;-79
2024/01/18 06:28:44;;;;;;;15.95;10.32;;;;;;;;;;5005160;28;20048;-79
2024/01/18 06:31:13;;;;;;;3.67;3.05;;;;;;;;;;5021146;28;20050;-78
2024/01/18 06:33:41;;;;;;;2.25;2.05;;;;;;;;;;5003591;28;20526;-78
2024/01/18 06:36:11;;;;;;;7.80;5.38;;;;;;;;;;5018150;28;20309;-77
2024/01/18 06:38:39;;;;;;;4.13;3.60;;;;;;;;;;5011199;28;20049;-77
2024/01/18 06:41:07;;;;;;;4.78;3.95;;;;;;;;;;5019097;28;20044;-78
2024/01/18 06:43:35;;;;;;;2.42;2.22;;;;;;;;;;5020261;28;20100;-78
2024/01/18 06:46:03;;;;;;;0.60;0.60;;;;;;;;;;5016738;28;20038;-78
2024/01/18 06:48:30;;;;;;;1.38;1.27;;;;;;;;;;5022285;28;20061;-77
2024/01/18 06:50:58;;;;;;;1.55;1.45;;;;;;;;;;5021108;28;20091;-78
2024/01/18 06:53:25;;;;;;;1.52;1.25;;;;;;;;;;5002030;28;20134;-78
2024/01/18 06:55:53;;;;;;;3.88;2.85;;;;;;;;;;5017116;28;20148;-78
2024/01/18 06:58:21;;;;;;;4.32;3.65;;;;;;;;;;5016978;28;20037;-78
2024/01/18 07:00:49;;;;;;;3.30;3.05;;;;;;;;;;5016756;28;20041;-78
2024/01/18 07:03:18;;;;;;;4.40;2.42;;;;;;;;;;5019340;28;20061;-79
2024/01/18 07:05:46;;;;;;;6.57;4.55;;;;;;;;;;5021980;28;20053;-77
2024/01/18 07:08:14;;;;;;;1.52;1.42;;;;;;;;;;5021475;28;21597;-78
2024/01/18 07:10:47;;;;;;;10.60;8.13;;;;;;;;;;4998798;28;20096;-78
2024/01/18 07:13:15;;;;;;;2.83;2.63;;;;;;;;;;5001486;28;20061;-78
2024/01/18 07:15:43;;;;;;;7.03;3.70;;;;;;;;;;5014233;28;20049;-77
2024/01/18 07:18:10;;;;;;;14.02;8.55;;;;;;;;;;5018258;28;20454;-77
2024/01/18 07:20:38;;;;;;;5.70;4.70;;;;;;;;;;5018432;28;20467;-77
2024/01/18 07:23:06;;;;;;;1.63;1.58;;;;;;;;;;5020137;28;20048;-77
2024/01/18 07:25:33;;;;;;;4.63;3.47;;;;;;;;;;5018157;28;20075;-77
2024/01/18 07:28:02;;;;;;;8.00;6.00;;;;;;;;;;5003852;28;20046;-78
2024/01/18 07:30:30;;;;;;;0.57;0.57;;;;;;;;;;5022021;28;20064;-78
2024/01/18 07:32:57;;;;;;;1.88;1.67;;;;;;;;;;5007307;28;20045;-78
2024/01/18 07:35:25;;;;;;;5.43;4.80;;;;;;;;;;5000753;28;20056;-78
2024/01/18 07:37:53;;;;;;;3.90;3.60;;;;;;;;;;4996157;28;20042;-78
2024/01/18 07:40:21;;;;;;;7.10;5.78;;;;;;;;;;5017633;28;20050;-78
2024/01/18 07:42:49;;;;;;;1.75;1.55;;;;;;;;;;5002973;28;20403;-78
2024/01/18 07:45:17;;;;;;;8.18;4.72;;;;;;;;;;5012066;28;20049;-78
2024/01/18 07:47:44;;;;;;;1.42;1.40;;;;;;;;;;4995119;28;20151;-77
2024/01/18 07:50:12;;;;;;;2.05;1.90;;;;;;;;;;5020781;28;20384;-78
2024/01/18 07:52:59;;;;;;;3.65;3.08;;;;;;;;;;5015598;28;20057;-77
2024/01/18 07:55:28;;;;;;;2.33;2.15;;;;;;;;;;4993269;28;20061;-78
2024/01/18 07:58:00;;;;;;;16.70;11.57;;;;;;;;;;5012161;28;20461;-77
2024/01/18 08:00:28;;;;;;;3.92;3.60;;;;;;;;;;5018245;28;20049;-78
2024/01/18 08:02:56;;;;;;;9.80;4.38;;;;;;;;;;4997838;28;20095;-78
2024/01/18 08:05:24;;;;;;;2.78;2.17;;;;;;;;;;5020221;28;20064;-77
2024/01/18 08:07:52;;;;;;;0.30;0.30;;;;;;;;;;5019330;28;20045;-78
2024/01/18 08:10:19;;;;;;;8.82;6.68;;;;;;;;;;5026675;28;20045;-78
2024/01/18 08:12:49;;;;;;;5.38;3.78;;;;;;;;;;5003205;28;20049;-78
2024/01/18 08:15:18;;;;;;;3.40;1.88;;;;;;;;;;5016553;28;20533;-78
2024/01/18 08:17:45;;;;;;;0.90;0.90;;;;;;;;;;5035719;23;20048;-74
2024/01/18 08:20:13;;;;;;;1.27;1.15;;;;;;;;;;5024671;28;20061;-75
2024/01/18 08:22:45;;;;;;;1.75;1.65;;;;;;;;;;5021184;28;20469;-74
2024/01/18 08:25:12;;;;;;;1.35;0.93;;;;;;;;;;5008988;28;20301;-74
2024/01/18 08:27:40;;;;;;;0.80;0.80;;;;;;;;;;5022316;28;20477;-74
2024/01/18 08:30:08;;;;;;;4.70;4.30;;;;;;;;;;5017977;28;20061;-74
2024/01/18 08:32:36;;;;;;;1.38;1.23;;;;;;;;;;5010857;28;20085;-75
2024/01/18 08:35:06;;;;;;;2.40;2.20;;;;;;;;;;5021009;28;20053;-75
2024/01/18 08:37:35;;;;;;;3.90;3.53;;;;;;;;;;5018642;28;20061;-74
2024/01/18 08:40:03;;;;;;;2.45;1.92;;;;;;;;;;5015798;28;20045;-73
2024/01/18 08:42:31;;;;;;;4.38;3.97;;;;;;;;;;5016752;28;20115;-73
2024/01/18 08:44:59;;;;;;;2.05;1.02;;;;;;;;;;5023664;28;20490;-73
2024/01/18 08:47:27;;;;;;;3.67;2.90;;;;;;;;;;5022814;28;20080;-73
2024/01/18 08:49:54;;;;;;;4.32;3.90;;;;;;;;;;5018062;28;20419;-73
2024/01/18 08:52:22;;;;;;;0.90;0.88;;;;;;;;;;5016534;28;20049;-73
2024/01/18 08:54:51;;;;;;;1.52;1.42;;;;;;;;;;5018082;28;22217;-73
2024/01/18 08:57:19;;;;;;;0.98;0.95;;;;;;;;;;5023706;28;20083;-73
2024/01/18 08:59:47;;;;;;;0.10;0.10;;;;;;;;;;5018342;28;20049;-73
2024/01/18 09:02:17;;;;;;;0.45;0.45;;;;;;;;;;5014493;28;20045;-73
2024/01/18 09:04:51;;;;;;;6.63;1.23;;;;;;;;;;5022119;28;20045;-73
2024/01/18 09:07:19;;;;;;;2.42;2.22;;;;;;;;;;5023751;28;20042;-73
2024/01/18 09:09:47;;;;;;;5.65;3.55;;;;;;;;;;5021454;28;20412;-73
2024/01/18 09:12:16;;;;;;;1.67;1.60;;;;;;;;;;5019102;28;20060;-73
2024/01/18 09:14:45;;;;;;;4.10;3.65;;;;;;;;;;5021394;28;20057;-73
2024/01/18 09:17:13;;;;;;;1.98;1.83;;;;;;;;;;5007284;28;20052;-73
2024/01/18 09:19:41;;;;;;;5.10;4.68;;;;;;;;;;5022907;28;20488;-73
2024/01/18 09:22:09;;;;;;;4.03;2.95;;;;;;;;;;5006519;28;20107;-73
2024/01/18 09:24:37;;;;;;;2.83;2.58;;;;;;;;;;5014315;28;20065;-73
2024/01/18 09:27:05;;;;;;;2.13;2.03;;;;;;;;;;5017800;28;20503;-73
2024/01/18 09:29:33;;;;;;;1.63;0.98;;;;;;;;;;4995136;28;20053;-73
2024/01/18 09:32:00;;;;;;;6.10;3.38;;;;;;;;;;5024313;28;20309;-73
2024/01/18 09:34:28;;;;;;;0.98;0.98;;;;;;;;;;5009662;28;20192;-74
2024/01/18 09:36:57;;;;;;;1.55;0.77;;;;;;;;;;5026022;28;20038;-73
2024/01/18 09:39:25;;;;;;;1.88;1.65;;;;;;;;;;5023721;28;20124;-74
2024/01/18 09:41:53;;;;;;;0.68;0.68;;;;;;;;;;4998527;28;20038;-75
2024/01/18 09:44:30;;;;;;;0.40;0.40;;;;;;;;;;5019491;28;20042;-73
2024/01/18 09:46:58;;;;;;;8.07;5.90;;;;;;;;;;5020336;28;20061;-73
2024/01/18 09:49:28;;;;;;;0.32;0.32;;;;;;;;;;5006930;28;20049;-73
2024/01/18 09:51:58;;;;;;;0.63;0.63;;;;;;;;;;5024256;28;20049;-73
2024/01/18 09:54:26;;;;;;;0.85;0.55;;;;;;;;;;5017598;28;20053;-73
2024/01/18 09:56:54;;;;;;;1.35;1.17;;;;;;;;;;5002765;28;20053;-73
2024/01/18 09:59:22;;;;;;;2.67;1.48;;;;;;;;;;5017371;28;20411;-73
2024/01/18 10:01:50;;;;;;;3.45;2.88;;;;;;;;;;5006651;28;20149;-71
2024/01/18 10:04:19;;;;;;;2.15;1.95;;;;;;;;;;5004103;28;20509;-73
2024/01/18 10:06:46;;;;;;;4.40;3.20;;;;;;;;;;5018975;28;20315;-73
2024/01/18 10:09:14;;;;;;;3.65;3.33;;;;;;;;;;5001191;28;20490;-73
2024/01/18 10:11:46;;;;;;;3.92;3.35;;;;;;;;;;5021022;28;20049;-73
2024/01/18 10:14:14;;;;;;;0.55;0.55;;;;;;;;;;5023573;28;20050;-74
2024/01/18 10:16:43;;;;;;;1.60;1.50;;;;;;;;;;5020019;28;20049;-74
2024/01/18 10:19:14;;;;;;;0.47;0.47;;;;;;;;;;5023285;28;20049;-73
2024/01/18 10:21:46;;;;;;;0.85;0.80;;;;;;;;;;5021599;28;20046;-73
2024/01/18 10:24:15;;;;;;;0.87;0.83;;;;;;;;;;5022900;28;20445;-74
2024/01/18 10:26:43;;;;;;;2.83;2.72;;;;;;;;;;5000867;28;20461;-75
2024/01/18 10:29:11;;;;;;;0.10;0.10;;;;;;;;;;5021598;28;20454;-74
2024/01/18 10:31:42;;;;;;;2.80;2.40;;;;;;;;;;4999692;28;20049;-74
2024/01/18 10:34:10;;;;;;;2.00;1.48;;;;;;;;;;5019233;28;20558;-74
2024/01/18 10:36:38;;;;;;;2.58;2.33;;;;;;;;;;5017428;28;20059;-74
2024/01/18 10:39:17;;;;;;;1.77;1.70;;;;;;;;;;5020643;28;20108;-73
2024/01/18 10:41:45;;;;;;;0.70;0.70;;;;;;;;;;5017065;28;20583;-75
2024/01/18 10:44:16;;;;;;;6.50;2.97;;;;;;;;;;5018739;28;20119;-74
2024/01/18 10:46:44;;;;;;;2.50;2.30;;;;;;;;;;5019994;28;20053;-74
2024/01/18 10:49:11;;;;;;;2.38;2.20;;;;;;;;;;5022514;28;20152;-75
2024/01/18 10:51:40;;;;;;;3.03;2.70;;;;;;;;;;5022295;28;20128;-75
2024/01/18 10:54:09;;;;;;;1.65;1.60;;;;;;;;;;5002182;28;20046;-75
2024/01/18 10:56:56;;;;;;;5.75;5.07;;;;;;;;;;5009888;28;20054;-74
2024/01/18 10:59:23;;;;;;;0.45;0.30;;;;;;;;;;5011135;28;20108;-74
2024/01/18 11:01:54;;;;;;;3.80;3.40;;;;;;;;;;5001531;28;20037;-74
2024/01/18 11:04:22;;;;;;;2.40;2.20;;;;;;;;;;5017479;28;20081;-75
2024/01/18 11:06:50;;;;;;;0.95;0.95;;;;;;;;;;5005420;28;20077;-74
2024/01/18 11:09:19;;;;;;;0.10;0.10;;;;;;;;;;5019458;28;20045;-74
2024/01/18 11:11:48;;;;;;;10.00;5.82;;;;;;;;;;5000355;28;20132;-74
2024/01/18 11:14:15;;;;;;;6.45;3.05;;;;;;;;;;5023402;28;20072;-79
2024/01/18 11:16:43;;;;;;;1.40;1.30;;;;;;;;;;5022899;28;20049;-78
2024/01/18 11:19:11;;;;;;;5.28;3.53;;;;;;;;;;5021111;28;20060;-79
2024/01/18 11:21:40;;;;;;;2.40;1.55;;;;;;;;;;5019626;28;20462;-74
2024/01/18 11:24:08;;;;;;;3.40;3.00;;;;;;;;;;5020334;28;20488;-74
2024/01/18 11:26:36;;;;;;;9.20;7.38;;;;;;;;;;5015449;28;20049;-75
2024/01/18 11:29:17;;;;;;;5.70;5.25;;;;;;;;;;5007331;28;20132;-74
2024/01/18 11:31:51;;;;;;;16.60;10.52;;;;;;;;;;5017460;28;20068;-75
2024/01/18 11:34:26;;;;;;;0.40;0.40;;;;;;;;;;5002913;28;20408;-75
2024/01/18 11:37:08;;;;;;;4.28;3.33;;;;;;;;;;5018797;28;20048;-75
2024/01/18 11:39:48;;;;;;;5.57;4.55;;;;;;;;;;5019574;28;20462;-74
2024/01/18 11:42:20;;;;;;;10.88;3.28;;;;;;;;;;5017185;28;20132;-75
2024/01/18 11:44:57;;;;;;;0.88;0.82;;;;;;;;;;5009567;28;20240;-74
2024/01/18 11:47:28;;;;;;;1.35;0.47;;;;;;;;;;5020731;28;20541;-74
2024/01/18 11:49:58;;;;;;;1.55;1.35;;;;;;;;;;5008123;28;20052;-74
2024/01/18 11:52:27;;;;;;;0.47;0.47;;;;;;;;;;5023842;28;20132;-74
2024/01/18 11:54:56;;;;;;;0.90;0.90;;;;;;;;;;5023789;28;20049;-74
2024/01/18 11:57:24;;;;;;;0.40;0.40;;;;;;;;;;5025321;28;20124;-74
2024/01/18 11:59:52;;;;;;;2.63;2.42;;;;;;;;;;5012179;28;20056;-74
2024/01/18 12:02:21;;;;;;;3.90;3.17;;;;;;;;;;5021157;28;20056;-74
2024/01/18 12:04:49;;;;;;;6.78;4.10;;;;;;;;;;5023618;28;20132;-74
2024/01/18 12:07:20;;;;;;;10.05;6.15;;;;;;;;;;5038839;28;20854;-74
2024/01/18 12:09:48;;;;;;;12.38;7.82;;;;;;;;;;5026656;28;20415;-74
2024/01/18 12:12:17;;;;;;;0.30;0.30;;;;;;;;;;5024702;28;20502;-74
2024/01/18 12:14:45;;;;;;;5.97;2.38;;;;;;;;;;5023447;28;20058;-74
2024/01/18 12:17:13;;;;;;;2.95;1.60;;;;;;;;;;5026989;28;20053;-74
2024/01/18 12:19:42;;;;;;;3.45;3.15;;;;;;;;;;5014551;28;20057;-74
2024/01/18 12:22:11;;;;;;;0.45;0.45;;;;;;;;;;5022332;28;20259;-74
2024/01/18 12:24:40;;;;;;;4.93;2.50;;;;;;;;;;5027616;28;20104;-74
2024/01/18 12:27:08;;;;;;;4.97;2.90;;;;;;;;;;5022325;28;20133;-74
2024/01/18 12:29:40;;;;;;;1.67;1.63;;;;;;;;;;5012334;28;20045;-74
2024/01/18 12:32:11;;;;;;;6.70;4.57;;;;;;;;;;5031123;28;20042;-74
2024/01/18 12:34:39;;;;;;;2.00;1.90;;;;;;;;;;5038769;28;20076;-74
2024/01/18 12:37:07;;;;;;;5.38;4.30;;;;;;;;;;5025582;28;20416;-74
2024/01/18 12:39:35;;;;;;;1.08;1.08;;;;;;;;;;5033341;28;20053;-74
2024/01/18 12:42:02;;;;;;;1.20;1.10;;;;;;;;;;5021325;28;20134;-74
2024/01/18 12:44:30;;;;;;;1.63;1.48;;;;;;;;;;5025364;28;20050;-74
2024/01/18 12:47:01;;;;;;;0.50;0.50;;;;;;;;;;5028760;28;20045;-74
2024/01/18 12:49:33;;;;;;;3.92;3.63;;;;;;;;;;5021369;28;20038;-74
2024/01/18 12:52:03;;;;;;;1.00;1.00;;;;;;;;;;5036133;28;20430;-79
2024/01/18 12:54:31;;;;;;;1.77;1.70;;;;;;;;;;5030919;28;20045;-77
2024/01/18 12:57:00;;;;;;;0.15;0.15;;;;;;;;;;5018296;28;20050;-77
2024/01/18 12:59:30;;;;;;;3.38;3.13;;;;;;;;;;5029655;28;20049;-77
2024/01/18 13:01:58;;;;;;;2.65;2.45;;;;;;;;;;5023110;28;20076;-76
2024/01/18 13:04:27;;;;;;;1.48;1.38;;;;;;;;;;5025695;28;20061;-78
2024/01/18 13:06:56;;;;;;;2.17;2.08;;;;;;;;;;5026967;28;20045;-79
2024/01/18 13:09:31;;;;;;;1.20;1.20;;;;;;;;;;5026692;28;20269;-77
2024/01/18 13:12:00;;;;;;;4.38;3.47;;;;;;;;;;5026524;28;20057;-78
2024/01/18 13:14:28;;;;;;;6.15;3.58;;;;;;;;;;5021088;28;20050;-78
2024/01/18 13:16:56;;;;;;;2.95;2.53;;;;;;;;;;5022364;28;20115;-78
2024/01/18 13:19:25;;;;;;;1.00;1.00;;;;;;;;;;5026043;28;20562;-78
2024/01/18 13:21:53;;;;;;;1.58;1.30;;;;;;;;;;5025486;28;20301;-77
2024/01/18 13:24:21;;;;;;;7.68;4.95;;;;;;;;;;5021837;28;20495;-78
2024/01/18 13:26:51;;;;;;;7.47;4.95;;;;;;;;;;5025692;28;20044;-78
2024/01/18 13:29:19;;;;;;;6.03;3.33;;;;;;;;;;5021788;28;20061;-78
2024/01/18 13:31:47;;;;;;;0.90;0.73;;;;;;;;;;5030538;28;20049;-78
2024/01/18 13:34:16;;;;;;;4.03;2.97;;;;;;;;;;5021120;28;20534;-79
2024/01/18 13:36:46;;;;;;;4.70;4.18;;;;;;;;;;5015910;28;20045;-79
2024/01/18 13:39:14;;;;;;;4.05;3.25;;;;;;;;;;5015643;28;20042;-79
2024/01/18 13:41:41;;;;;;;3.00;2.75;;;;;;;;;;5021283;28;20526;-77
2024/01/18 13:44:09;;;;;;;12.55;2.38;;;;;;;;;;5015621;28;20052;-77
2024/01/18 13:46:37;;;;;;;2.03;1.92;;;;;;;;;;5020541;28;20046;-77
2024/01/18 13:49:05;;;;;;;0.85;0.85;;;;;;;;;;5028016;28;20056;-76
2024/01/18 13:51:33;;;;;;;1.58;1.48;;;;;;;;;;5029157;28;20230;-76
2024/01/18 13:54:01;;;;;;;2.75;2.55;;;;;;;;;;5030893;28;20064;-77
2024/01/18 13:56:29;;;;;;;4.25;3.42;;;;;;;;;;5030708;28;20059;-79
2024/01/18 13:58:56;;;;;;;11.35;7.32;;;;;;;;;;5020708;28;20053;-77
2024/01/18 14:01:24;;;;;;;5.05;4.10;;;;;;;;;;5020671;28;20056;-74
2024/01/18 14:03:52;;;;;;;0.10;0.10;;;;;;;;;;5008381;28;20463;-75
2024/01/18 14:06:22;;;;;;;1.45;1.35;;;;;;;;;;5022934;28;20042;-73
2024/01/18 14:08:51;;;;;;;4.50;2.70;;;;;;;;;;5020908;28;20041;-74
2024/01/18 14:11:19;;;;;;;2.25;2.05;;;;;;;;;;5018839;28;20057;-74
2024/01/18 14:13:47;;;;;;;4.53;2.47;;;;;;;;;;5022779;28;20123;-74
2024/01/18 14:16:14;;;;;;;3.67;2.10;;;;;;;;;;5017683;28;20103;-74
2024/01/18 14:21:37;;;;;;;0.50;0.50;;;;;;;;;;5025669;28;20038;-73
2024/01/18 14:24:05;;;;;;;5.70;4.80;;;;;;;;;;5032147;28;20039;-73
2024/01/18 14:26:33;;;;;;;3.45;1.63;;;;;;;;;;5042623;28;20568;-76
2024/01/18 14:29:06;;;;;;;2.85;2.63;;;;;;;;;;5039879;28;20040;-76
2024/01/18 14:31:34;;;;;;;10.80;7.05;;;;;;;;;;5040793;28;20119;-75
2024/01/18 14:34:02;;;;;;;2.63;2.42;;;;;;;;;;5043247;28;20041;-75
2024/01/18 14:36:30;;;;;;;1.75;1.50;;;;;;;;;;5040603;28;20072;-74
2024/01/18 14:38:57;;;;;;;9.77;3.55;;;;;;;;;;5026980;28;20072;-73
2024/01/18 14:41:25;;;;;;;1.00;0.55;;;;;;;;;;5042745;28;20049;-74
2024/01/18 14:43:53;;;;;;;3.50;3.20;;;;;;;;;;5039166;28;20056;-74
2024/01/18 14:46:20;;;;;;;2.67;2.33;;;;;;;;;;5035726;28;20098;-76
2024/01/18 14:48:48;;;;;;;6.97;3.47;;;;;;;;;;5017690;28;20053;-74
2024/01/18 14:51:16;;;;;;;14.30;11.80;;;;;;;;;;5028339;28;20075;-74
2024/01/18 14:53:44;;;;;;;6.40;4.25;;;;;;;;;;5027014;28;20045;-77